TimeHST,TemperatureF,Dew PointF,Humidity,Sea Level PressureIn,VisibilityMPH,Wind Direction,Wind SpeedMPH,Gust SpeedMPH,PrecipitationIn,Events,Conditions,WindDirDegrees,DateUTC
12:56 AM,73.0,60.1,64,30.13,10.0,East,3.5,-,N/A,,Clear,100,2013-05-16 10:56:00
1:56 AM,73.0,60.1,64,30.11,10.0,Calm,Calm,-,N/A,,Clear,0,2013-05-16 11:56:00
2:56 AM,71.1,60.1,68,30.10,10.0,East,4.6,-,N/A,,Clear,100,2013-05-16 12:56:00
3:56 AM,71.1,63.0,75,30.09,10.0,ESE,3.5,-,N/A,,Clear,110,2013-05-16 13:56:00
4:56 AM,71.1,61.0,70,30.10,10.0,ENE,4.6,-,N/A,,Clear,70,2013-05-16 14:56:00
5:56 AM,70.0,61.0,73,30.10,10.0,ENE,4.6,-,N/A,,Clear,60,2013-05-16 15:56:00
6:56 AM,72.0,63.0,73,30.12,10.0,Calm,Calm,-,N/A,,Clear,0,2013-05-16 16:56:00
7:56 AM,77.0,66.0,69,30.13,10.0,WSW,3.5,-,N/A,,Clear,250,2013-05-16 17:56:00
8:56 AM,79.0,66.0,64,30.14,10.0,WSW,5.8,-,N/A,,Clear,240,2013-05-16 18:56:00
9:56 AM,79.0,66.0,64,30.13,10.0,WNW,6.9,-,N/A,,Partly Cloudy,290,2013-05-16 19:56:00
10:56 AM,80.1,64.9,60,30.13,10.0,WNW,9.2,-,N/A,,Mostly Cloudy,290,2013-05-16 20:56:00
11:56 AM,82.9,64.9,54,30.12,10.0,West,10.4,-,N/A,,Partly Cloudy,280,2013-05-16 21:56:00
12:56 PM,82.9,66.9,58,30.09,10.0,West,11.5,-,N/A,,Clear,270,2013-05-16 22:56:00
1:56 PM,82.0,68.0,62,30.08,10.0,West,10.4,-,N/A,,Clear,280,2013-05-16 23:56:00
2:56 PM,82.9,64.9,54,30.06,10.0,WNW,10.4,-,N/A,,Clear,300,2013-05-17 00:56:00
3:56 PM,82.0,64.9,56,30.05,10.0,West,6.9,-,N/A,,Clear,280,2013-05-17 01:56:00
4:56 PM,82.0,66.9,60,30.05,10.0,SW,10.4,-,N/A,,Partly Cloudy,230,2013-05-17 02:56:00
5:56 PM,81.0,66.0,60,30.05,10.0,WSW,10.4,-,N/A,,Clear,240,2013-05-17 03:56:00
6:56 PM,80.1,64.9,60,30.06,10.0,North,8.1,-,N/A,,Partly Cloudy,10,2013-05-17 04:56:00
7:56 PM,79.0,64.9,62,30.08,10.0,North,6.9,-,N/A,,Clear,350,2013-05-17 05:56:00
8:56 PM,75.0,61.0,62,30.10,10.0,SE,3.5,-,N/A,,Clear,140,2013-05-17 06:56:00
9:56 PM,73.0,57.9,59,30.12,10.0,ESE,3.5,-,N/A,,Clear,120,2013-05-17 07:56:00
10:56 PM,71.1,57.9,63,30.13,10.0,ENE,3.5,-,N/A,,Clear,70,2013-05-17 08:56:00
11:56 PM,69.1,57.9,68,30.11,10.0,East,4.6,-,N/A,,Clear,80,2013-05-17 09:56:00